createdAt,value
2023-09-09T15:51:47.258Z,5.10
2023-09-09T15:54:52.518Z,4.35
2023-09-09T15:57:57.906Z,5.45
2023-09-09T16:01:03.757Z,5.25
2023-09-09T16:04:09.246Z,5.93
2023-09-09T16:07:17.482Z,3.97
2023-09-09T16:10:23.256Z,4.22
2023-09-09T16:13:28.988Z,6.15
2023-09-09T16:16:35.089Z,3.72
2023-09-09T16:19:40.447Z,4.22
2023-09-09T16:22:48.559Z,3.92
2023-09-09T16:25:54.395Z,8.88
2023-09-09T16:29:00.092Z,2.83
2023-09-09T16:32:05.386Z,5.10
2023-09-09T16:35:13.174Z,4.55
2023-09-09T16:38:20.958Z,5.93
2023-09-09T16:41:26.421Z,3.25
2023-09-09T16:44:31.502Z,6.10
2023-09-09T16:47:36.950Z,2.80
2023-09-09T16:50:42.151Z,4.90
2023-09-09T16:53:50.189Z,3.88
2023-09-09T16:56:56.282Z,5.78
2023-09-09T17:00:01.687Z,5.90
2023-09-09T17:03:09.214Z,4.47
2023-09-09T17:06:14.724Z,5.65
2023-09-09T17:09:23.129Z,5.70
2023-09-09T17:12:28.585Z,5.72
2023-09-09T17:15:33.877Z,6.82
2023-09-09T17:18:39.745Z,7.57
2023-09-09T17:21:45.324Z,5.38
2023-09-09T17:24:53.739Z,3.75
2023-09-09T17:27:59.439Z,5.63
2023-09-09T17:31:05.701Z,6.55
2023-09-09T17:34:11.062Z,7.07
2023-09-09T17:37:16.478Z,5.78
2023-09-09T17:40:24.638Z,5.75
2023-09-09T17:43:29.853Z,10.00
2023-09-09T17:46:36.982Z,10.00
2023-09-09T17:49:47.662Z,6.32
2023-09-09T17:52:54.350Z,4.47
2023-09-09T17:56:02.341Z,4.82
2023-09-09T17:59:07.796Z,5.22
2023-09-09T18:02:13.169Z,6.05
2023-09-09T18:05:18.775Z,6.32
2023-09-09T18:08:24.156Z,6.10
2023-09-09T18:11:32.143Z,5.85
2023-09-09T18:14:37.778Z,10.63
2023-09-09T18:17:43.266Z,6.28
2023-09-09T18:20:49.991Z,9.32
2023-09-09T18:23:55.768Z,5.40
2023-09-09T18:27:03.452Z,7.40
2023-09-09T18:30:09.869Z,9.15
2023-09-09T18:33:15.885Z,9.00
2023-09-09T18:36:21.462Z,7.80
2023-09-09T18:39:27.341Z,6.00
2023-09-09T18:42:35.552Z,7.40
2023-09-09T18:45:40.935Z,7.57
2023-09-09T18:48:46.418Z,10.50
2023-09-09T18:51:52.477Z,6.38
2023-09-09T18:54:58.033Z,7.13
2023-09-09T18:58:05.751Z,8.90
2023-09-09T19:01:11.309Z,8.65
2023-09-09T19:04:16.599Z,10.60
2023-09-09T19:07:32.932Z,8.18
2023-09-09T19:10:38.456Z,8.80
2023-09-09T19:13:46.546Z,5.90
2023-09-09T19:16:51.911Z,7.88
2023-09-09T19:19:57.996Z,9.23
2023-09-09T19:23:04.466Z,8.18
2023-09-09T19:26:09.957Z,8.02
2023-09-09T19:29:17.930Z,6.63
2023-09-09T19:32:23.323Z,7.72
2023-09-09T19:35:28.730Z,7.90
2023-09-09T19:38:34.328Z,8.85
2023-09-09T19:41:39.898Z,6.38
2023-09-09T19:44:47.871Z,12.10
2023-09-09T19:47:53.297Z,7.13
2023-09-09T19:50:59.047Z,8.13
2023-09-09T19:54:04.237Z,7.25
2023-09-09T19:57:09.813Z,7.65
2023-09-09T20:00:18.157Z,11.10
2023-09-09T20:06:29.625Z,7.22
2023-09-09T20:09:35.097Z,9.65
2023-09-09T20:12:40.312Z,7.78
2023-09-09T20:15:48.547Z,8.07
2023-09-09T20:18:53.995Z,10.05
2023-09-09T20:21:59.450Z,9.15
2023-09-09T20:25:04.903Z,8.65
2023-09-09T20:28:10.645Z,9.35
2023-09-09T20:31:18.662Z,8.63
2023-09-09T20:34:24.376Z,8.63
2023-09-09T20:37:29.476Z,11.45
2023-09-09T20:40:34.934Z,11.88
2023-09-09T20:43:40.616Z,8.80
2023-09-09T20:46:48.898Z,10.52
2023-09-09T20:49:54.147Z,9.07
2023-09-09T20:52:59.501Z,10.32
2023-09-09T20:56:05.417Z,10.50
2023-09-09T20:59:11.145Z,9.75
2023-09-09T21:02:19.261Z,9.50
2023-09-09T21:05:24.921Z,8.27
2023-09-09T21:08:30.321Z,8.18
2023-09-09T21:11:35.775Z,10.45
2023-09-09T21:14:41.121Z,9.80
2023-09-09T21:17:49.298Z,10.90
2023-09-09T21:20:54.694Z,8.60
2023-09-09T21:23:59.916Z,8.07
2023-09-09T21:27:05.167Z,7.50
2023-09-09T21:30:11.400Z,11.02
2023-09-09T21:33:19.401Z,8.75
2023-09-09T21:36:24.839Z,7.88
2023-09-09T21:39:31.508Z,9.65
2023-09-09T21:42:36.641Z,14.18
2023-09-09T21:45:42.026Z,12.95
2023-09-09T21:48:50.810Z,12.15
2023-09-09T21:51:56.247Z,11.48
2023-09-09T21:55:01.380Z,9.88
2023-09-09T21:58:06.972Z,9.65
2023-09-09T22:01:12.682Z,15.18
2023-09-09T22:04:20.478Z,9.05
2023-09-09T22:07:25.876Z,9.15
2023-09-09T22:10:31.223Z,14.75
2023-09-09T22:13:36.985Z,11.13
2023-09-09T22:16:42.125Z,12.32
2023-09-09T22:19:49.989Z,9.77
2023-09-09T22:22:55.182Z,13.43
2023-09-09T22:26:01.199Z,10.25
2023-09-09T22:29:07.987Z,9.88
2023-09-09T22:32:13.412Z,11.57
2023-09-09T22:35:26.282Z,11.35
2023-09-09T22:38:31.641Z,10.40
2023-09-09T22:41:37.058Z,11.77
2023-09-09T22:44:42.276Z,13.07
2023-09-09T22:47:47.767Z,10.27
2023-09-09T22:50:55.904Z,13.77
2023-09-09T22:54:01.188Z,10.98
2023-09-09T22:57:06.613Z,10.82
2023-09-09T23:00:15.108Z,10.18
2023-09-09T23:03:20.731Z,11.20
2023-09-09T23:06:28.669Z,15.23
2023-09-09T23:09:34.599Z,12.55
2023-09-09T23:12:39.832Z,11.13
2023-09-09T23:15:45.140Z,13.27
2023-09-09T23:18:50.473Z,12.40
2023-09-09T23:21:58.490Z,11.55
2023-09-09T23:25:04.024Z,9.55
2023-09-09T23:28:11.071Z,12.88
2023-09-09T23:31:16.617Z,10.75
2023-09-09T23:34:22.180Z,10.15
2023-09-09T23:37:30.462Z,11.63
2023-09-09T23:40:36.084Z,9.85
2023-09-09T23:43:42.383Z,12.70
2023-09-09T23:46:47.909Z,13.18
2023-09-09T23:49:53.340Z,12.30
2023-09-09T23:53:05.324Z,12.88
2023-09-09T23:56:10.707Z,12.95
2023-09-09T23:59:16.366Z,12.45
